sensor_id;sensor_type;location;lat;lon;timestamp;temperature;humidity
21246;DHT22;10781;50.928;4.440;2023-07-20T00:00:51;18.50;99.90
21246;DHT22;10781;50.928;4.440;2023-07-20T00:03:19;18.40;99.90
21246;DHT22;10781;50.928;4.440;2023-07-20T00:05:50;18.40;99.90
21246;DHT22;10781;50.928;4.440;2023-07-20T00:08:17;18.40;99.90
21246;DHT22;10781;50.928;4.440;2023-07-20T00:10:43;18.30;99.90
21246;DHT22;10781;50.928;4.440;2023-07-20T00:13:10;18.20;99.90
21246;DHT22;10781;50.928;4.440;2023-07-20T00:15:36;18.20;99.90
21246;DHT22;10781;50.928;4.440;2023-07-20T00:18:03;17.90;99.90
21246;DHT22;10781;50.928;4.440;2023-07-20T00:20:29;18.00;99.90
21246;DHT22;10781;50.928;4.440;2023-07-20T00:22:55;18.00;99.90
21246;DHT22;10781;50.928;4.440;2023-07-20T00:25:23;18.00;99.90
21246;DHT22;10781;50.928;4.440;2023-07-20T00:27:49;18.00;99.90
21246;DHT22;10781;50.928;4.440;2023-07-20T00:30:15;18.10;99.90
21246;DHT22;10781;50.928;4.440;2023-07-20T00:32:42;18.20;99.90
21246;DHT22;10781;50.928;4.440;2023-07-20T00:35:08;18.10;99.90
21246;DHT22;10781;50.928;4.440;2023-07-20T00:37:34;18.10;99.90
21246;DHT22;10781;50.928;4.440;2023-07-20T00:40:00;18.00;99.90
21246;DHT22;10781;50.928;4.440;2023-07-20T00:42:25;18.00;99.90
21246;DHT22;10781;50.928;4.440;2023-07-20T00:44:51;18.20;99.90
21246;DHT22;10781;50.928;4.440;2023-07-20T00:47:16;18.40;99.90
21246;DHT22;10781;50.928;4.440;2023-07-20T00:49:42;18.40;99.90
21246;DHT22;10781;50.928;4.440;2023-07-20T00:52:10;18.20;99.90
21246;DHT22;10781;50.928;4.440;2023-07-20T00:54:40;18.20;99.90
21246;DHT22;10781;50.928;4.440;2023-07-20T00:57:07;18.20;99.90
21246;DHT22;10781;50.928;4.440;2023-07-20T00:59:34;18.10;99.90
21246;DHT22;10781;50.928;4.440;2023-07-20T01:01:59;18.10;99.90
21246;DHT22;10781;50.928;4.440;2023-07-20T01:04:25;18.00;99.90
21246;DHT22;10781;50.928;4.440;2023-07-20T01:07:10;17.90;99.90
21246;DHT22;10781;50.928;4.440;2023-07-20T01:09:42;17.80;99.90
21246;DHT22;10781;50.928;4.440;2023-07-20T01:12:43;17.90;99.90
21246;DHT22;10781;50.928;4.440;2023-07-20T01:15:12;18.10;99.90
21246;DHT22;10781;50.928;4.440;2023-07-20T01:17:38;18.10;99.90
21246;DHT22;10781;50.928;4.440;2023-07-20T01:20:04;18.30;99.90
21246;DHT22;10781;50.928;4.440;2023-07-20T01:31:24;18.30;99.90
21246;DHT22;10781;50.928;4.440;2023-07-20T01:33:53;18.20;99.90
21246;DHT22;10781;50.928;4.440;2023-07-20T01:36:19;18.10;99.90
21246;DHT22;10781;50.928;4.440;2023-07-20T01:38:47;18.00;99.90
21246;DHT22;10781;50.928;4.440;2023-07-20T01:41:13;18.00;99.90
21246;DHT22;10781;50.928;4.440;2023-07-20T01:43:40;17.90;99.90
21246;DHT22;10781;50.928;4.440;2023-07-20T01:46:06;17.80;99.90
21246;DHT22;10781;50.928;4.440;2023-07-20T01:48:32;17.80;99.90
21246;DHT22;10781;50.928;4.440;2023-07-20T01:50:57;17.90;99.90
21246;DHT22;10781;50.928;4.440;2023-07-20T01:53:23;17.80;99.90
21246;DHT22;10781;50.928;4.440;2023-07-20T01:55:48;17.80;99.90
21246;DHT22;10781;50.928;4.440;2023-07-20T01:58:14;17.80;99.90
21246;DHT22;10781;50.928;4.440;2023-07-20T02:00:40;17.90;99.90
21246;DHT22;10781;50.928;4.440;2023-07-20T02:03:05;17.90;99.90
21246;DHT22;10781;50.928;4.440;2023-07-20T02:05:31;17.90;99.90
21246;DHT22;10781;50.928;4.440;2023-07-20T02:07:57;17.90;99.90
21246;DHT22;10781;50.928;4.440;2023-07-20T02:10:23;17.90;99.90
21246;DHT22;10781;50.928;4.440;2023-07-20T02:12:48;17.90;99.90
21246;DHT22;10781;50.928;4.440;2023-07-20T02:15:14;18.00;99.90
21246;DHT22;10781;50.928;4.440;2023-07-20T02:17:42;18.00;99.90
21246;DHT22;10781;50.928;4.440;2023-07-20T02:20:09;17.80;99.90
21246;DHT22;10781;50.928;4.440;2023-07-20T02:22:36;17.90;99.90
21246;DHT22;10781;50.928;4.440;2023-07-20T02:25:04;17.90;99.90
21246;DHT22;10781;50.928;4.440;2023-07-20T02:27:29;17.90;99.90
21246;DHT22;10781;50.928;4.440;2023-07-20T02:29:56;17.70;99.90
21246;DHT22;10781;50.928;4.440;2023-07-20T02:32:21;17.70;99.90
21246;DHT22;10781;50.928;4.440;2023-07-20T02:34:47;17.60;99.90
21246;DHT22;10781;50.928;4.440;2023-07-20T02:37:13;17.80;99.90
21246;DHT22;10781;50.928;4.440;2023-07-20T02:39:39;17.80;99.90
21246;DHT22;10781;50.928;4.440;2023-07-20T02:42:05;17.80;99.90
21246;DHT22;10781;50.928;4.440;2023-07-20T02:44:31;17.90;99.90
21246;DHT22;10781;50.928;4.440;2023-07-20T02:46:56;17.80;99.90
21246;DHT22;10781;50.928;4.440;2023-07-20T02:49:22;17.90;99.90
21246;DHT22;10781;50.928;4.440;2023-07-20T02:51:48;17.80;99.90
21246;DHT22;10781;50.928;4.440;2023-07-20T02:54:13;17.80;99.90
21246;DHT22;10781;50.928;4.440;2023-07-20T02:56:39;17.70;99.90
21246;DHT22;10781;50.928;4.440;2023-07-20T02:59:04;17.80;99.90
21246;DHT22;10781;50.928;4.440;2023-07-20T03:01:30;17.70;99.90
21246;DHT22;10781;50.928;4.440;2023-07-20T03:03:56;17.70;99.90
21246;DHT22;10781;50.928;4.440;2023-07-20T03:06:22;17.80;99.90
21246;DHT22;10781;50.928;4.440;2023-07-20T03:08:47;17.90;99.90
21246;DHT22;10781;50.928;4.440;2023-07-20T03:11:14;17.90;99.90
21246;DHT22;10781;50.928;4.440;2023-07-20T03:13:43;17.90;99.90
21246;DHT22;10781;50.928;4.440;2023-07-20T03:16:10;17.80;99.90
21246;DHT22;10781;50.928;4.440;2023-07-20T03:18:39;17.70;99.90
21246;DHT22;10781;50.928;4.440;2023-07-20T03:21:07;17.60;99.90
21246;DHT22;10781;50.928;4.440;2023-07-20T03:23:32;17.70;99.90
21246;DHT22;10781;50.928;4.440;2023-07-20T03:25:58;17.70;99.90
21246;DHT22;10781;50.928;4.440;2023-07-20T03:28:24;17.70;99.90
21246;DHT22;10781;50.928;4.440;2023-07-20T03:30:54;17.80;99.90
21246;DHT22;10781;50.928;4.440;2023-07-20T03:33:21;17.80;99.90
21246;DHT22;10781;50.928;4.440;2023-07-20T03:35:47;17.80;99.90
21246;DHT22;10781;50.928;4.440;2023-07-20T03:38:13;17.80;99.90
21246;DHT22;10781;50.928;4.440;2023-07-20T03:40:38;17.90;99.90
21246;DHT22;10781;50.928;4.440;2023-07-20T03:43:04;18.00;99.90
21246;DHT22;10781;50.928;4.440;2023-07-20T03:45:29;18.10;99.90
21246;DHT22;10781;50.928;4.440;2023-07-20T03:47:55;18.10;99.90
21246;DHT22;10781;50.928;4.440;2023-07-20T03:50:21;18.10;99.90
21246;DHT22;10781;50.928;4.440;2023-07-20T03:52:47;18.20;99.90
21246;DHT22;10781;50.928;4.440;2023-07-20T03:55:13;18.10;99.90
21246;DHT22;10781;50.928;4.440;2023-07-20T03:57:39;18.10;99.90
21246;DHT22;10781;50.928;4.440;2023-07-20T04:00:05;18.20;99.90
21246;DHT22;10781;50.928;4.440;2023-07-20T04:02:33;18.10;99.90
21246;DHT22;10781;50.928;4.440;2023-07-20T04:04:59;18.10;99.90
21246;DHT22;10781;50.928;4.440;2023-07-20T04:07:24;18.10;99.90
21246;DHT22;10781;50.928;4.440;2023-07-20T04:09:50;18.30;99.90
21246;DHT22;10781;50.928;4.440;2023-07-20T04:12:15;18.30;99.90
21246;DHT22;10781;50.928;4.440;2023-07-20T04:14:41;18.30;99.90
21246;DHT22;10781;50.928;4.440;2023-07-20T04:17:07;18.40;99.90
21246;DHT22;10781;50.928;4.440;2023-07-20T04:19:33;18.50;99.90
21246;DHT22;10781;50.928;4.440;2023-07-20T04:21:58;18.60;99.90
21246;DHT22;10781;50.928;4.440;2023-07-20T04:24:24;18.60;99.90
21246;DHT22;10781;50.928;4.440;2023-07-20T04:26:50;18.50;99.90
21246;DHT22;10781;50.928;4.440;2023-07-20T04:29:15;18.20;99.90
21246;DHT22;10781;50.928;4.440;2023-07-20T04:31:41;18.20;99.90
21246;DHT22;10781;50.928;4.440;2023-07-20T04:34:07;18.30;99.90
21246;DHT22;10781;50.928;4.440;2023-07-20T04:36:32;18.00;99.90
21246;DHT22;10781;50.928;4.440;2023-07-20T04:38:58;18.00;99.90
21246;DHT22;10781;50.928;4.440;2023-07-20T04:41:23;18.00;99.90
21246;DHT22;10781;50.928;4.440;2023-07-20T04:43:50;18.20;99.90
21246;DHT22;10781;50.928;4.440;2023-07-20T04:46:16;18.30;99.90
21246;DHT22;10781;50.928;4.440;2023-07-20T04:48:43;18.30;99.90
21246;DHT22;10781;50.928;4.440;2023-07-20T04:51:09;18.30;99.90
21246;DHT22;10781;50.928;4.440;2023-07-20T04:53:35;18.40;99.90
21246;DHT22;10781;50.928;4.440;2023-07-20T04:56:01;18.30;99.90
21246;DHT22;10781;50.928;4.440;2023-07-20T04:58:27;18.40;99.90
21246;DHT22;10781;50.928;4.440;2023-07-20T05:00:52;18.40;99.90
21246;DHT22;10781;50.928;4.440;2023-07-20T05:03:18;18.50;99.90
21246;DHT22;10781;50.928;4.440;2023-07-20T05:05:44;18.70;99.90
21246;DHT22;10781;50.928;4.440;2023-07-20T05:08:10;18.70;99.90
21246;DHT22;10781;50.928;4.440;2023-07-20T05:10:35;18.80;99.90
21246;DHT22;10781;50.928;4.440;2023-07-20T05:13:01;18.80;99.90
21246;DHT22;10781;50.928;4.440;2023-07-20T05:15:27;18.80;99.90
21246;DHT22;10781;50.928;4.440;2023-07-20T05:17:52;18.80;99.90
21246;DHT22;10781;50.928;4.440;2023-07-20T05:20:18;18.90;99.90
21246;DHT22;10781;50.928;4.440;2023-07-20T05:22:44;18.70;99.90
21246;DHT22;10781;50.928;4.440;2023-07-20T05:25:10;18.80;99.90
21246;DHT22;10781;50.928;4.440;2023-07-20T05:27:37;18.90;99.90
21246;DHT22;10781;50.928;4.440;2023-07-20T05:30:03;19.00;99.90
21246;DHT22;10781;50.928;4.440;2023-07-20T05:32:29;19.10;99.90
21246;DHT22;10781;50.928;4.440;2023-07-20T05:34:55;19.20;99.90
21246;DHT22;10781;50.928;4.440;2023-07-20T05:37:21;19.30;99.90
21246;DHT22;10781;50.928;4.440;2023-07-20T05:39:47;19.30;99.90
21246;DHT22;10781;50.928;4.440;2023-07-20T05:42:12;19.40;99.90
21246;DHT22;10781;50.928;4.440;2023-07-20T05:44:39;19.50;99.90
21246;DHT22;10781;50.928;4.440;2023-07-20T05:47:05;19.40;99.90
21246;DHT22;10781;50.928;4.440;2023-07-20T05:49:31;19.30;99.90
21246;DHT22;10781;50.928;4.440;2023-07-20T05:51:57;19.50;99.90
21246;DHT22;10781;50.928;4.440;2023-07-20T05:54:24;19.70;99.90
21246;DHT22;10781;50.928;4.440;2023-07-20T05:56:50;19.90;99.90
21246;DHT22;10781;50.928;4.440;2023-07-20T05:59:16;20.00;99.90
21246;DHT22;10781;50.928;4.440;2023-07-20T06:01:42;20.10;99.90
21246;DHT22;10781;50.928;4.440;2023-07-20T06:04:08;20.20;99.90
21246;DHT22;10781;50.928;4.440;2023-07-20T06:06:34;20.00;99.90
21246;DHT22;10781;50.928;4.440;2023-07-20T06:09:00;20.00;99.90
21246;DHT22;10781;50.928;4.440;2023-07-20T06:11:29;20.10;99.90
21246;DHT22;10781;50.928;4.440;2023-07-20T06:13:56;20.20;99.90
21246;DHT22;10781;50.928;4.440;2023-07-20T06:16:22;20.40;99.90
21246;DHT22;10781;50.928;4.440;2023-07-20T06:18:48;20.50;99.90
21246;DHT22;10781;50.928;4.440;2023-07-20T06:21:13;20.60;99.90
21246;DHT22;10781;50.928;4.440;2023-07-20T06:23:39;20.80;99.90
21246;DHT22;10781;50.928;4.440;2023-07-20T06:26:06;20.80;99.90
21246;DHT22;10781;50.928;4.440;2023-07-20T06:28:32;20.80;99.90
21246;DHT22;10781;50.928;4.440;2023-07-20T06:31:02;21.00;99.90
21246;DHT22;10781;50.928;4.440;2023-07-20T06:33:28;21.10;99.90
21246;DHT22;10781;50.928;4.440;2023-07-20T06:35:53;21.10;99.90
21246;DHT22;10781;50.928;4.440;2023-07-20T06:38:19;21.20;99.90
21246;DHT22;10781;50.928;4.440;2023-07-20T06:40:48;21.30;99.90
21246;DHT22;10781;50.928;4.440;2023-07-20T06:43:14;21.40;99.90
21246;DHT22;10781;50.928;4.440;2023-07-20T06:45:40;21.40;99.90
21246;DHT22;10781;50.928;4.440;2023-07-20T06:48:06;21.30;99.90
21246;DHT22;10781;50.928;4.440;2023-07-20T06:50:31;21.30;99.90
21246;DHT22;10781;50.928;4.440;2023-07-20T06:52:57;21.50;99.90
21246;DHT22;10781;50.928;4.440;2023-07-20T06:55:24;21.70;99.90
21246;DHT22;10781;50.928;4.440;2023-07-20T06:57:50;21.90;99.90
21246;DHT22;10781;50.928;4.440;2023-07-20T07:00:16;22.10;99.90
21246;DHT22;10781;50.928;4.440;2023-07-20T07:02:42;22.20;99.90
21246;DHT22;10781;50.928;4.440;2023-07-20T07:05:08;22.10;99.90
21246;DHT22;10781;50.928;4.440;2023-07-20T07:07:33;21.70;99.90
21246;DHT22;10781;50.928;4.440;2023-07-20T07:10:00;21.20;99.90
21246;DHT22;10781;50.928;4.440;2023-07-20T07:12:26;20.90;99.90
21246;DHT22;10781;50.928;4.440;2023-07-20T07:14:51;20.40;99.90
21246;DHT22;10781;50.928;4.440;2023-07-20T07:17:18;20.30;99.90
21246;DHT22;10781;50.928;4.440;2023-07-20T07:19:43;20.60;99.90
21246;DHT22;10781;50.928;4.440;2023-07-20T07:22:10;21.00;99.90
21246;DHT22;10781;50.928;4.440;2023-07-20T07:24:35;21.50;99.90
21246;DHT22;10781;50.928;4.440;2023-07-20T07:27:01;21.40;99.90
21246;DHT22;10781;50.928;4.440;2023-07-20T07:29:27;21.70;99.90
21246;DHT22;10781;50.928;4.440;2023-07-20T07:31:53;22.30;99.90
21246;DHT22;10781;50.928;4.440;2023-07-20T07:34:19;22.90;99.90
21246;DHT22;10781;50.928;4.440;2023-07-20T07:36:44;24.00;99.90
21246;DHT22;10781;50.928;4.440;2023-07-20T07:39:10;24.40;99.90
21246;DHT22;10781;50.928;4.440;2023-07-20T07:41:36;24.00;99.90
21246;DHT22;10781;50.928;4.440;2023-07-20T07:44:02;24.30;99.90
21246;DHT22;10781;50.928;4.440;2023-07-20T07:46:28;25.40;99.90
21246;DHT22;10781;50.928;4.440;2023-07-20T07:48:53;26.10;99.90
21246;DHT22;10781;50.928;4.440;2023-07-20T07:51:19;25.00;99.90
21246;DHT22;10781;50.928;4.440;2023-07-20T07:53:46;25.30;99.90
21246;DHT22;10781;50.928;4.440;2023-07-20T07:56:12;26.20;99.90
21246;DHT22;10781;50.928;4.440;2023-07-20T07:58:37;27.30;99.90
21246;DHT22;10781;50.928;4.440;2023-07-20T08:01:04;26.90;99.90
21246;DHT22;10781;50.928;4.440;2023-07-20T08:03:29;28.90;99.90
21246;DHT22;10781;50.928;4.440;2023-07-20T08:05:55;30.50;99.90
21246;DHT22;10781;50.928;4.440;2023-07-20T08:08:22;30.80;99.90
21246;DHT22;10781;50.928;4.440;2023-07-20T08:10:47;32.30;99.90
21246;DHT22;10781;50.928;4.440;2023-07-20T08:13:14;33.20;99.90
21246;DHT22;10781;50.928;4.440;2023-07-20T08:15:41;33.90;97.20
21246;DHT22;10781;50.928;4.440;2023-07-20T08:18:07;34.30;91.90
21246;DHT22;10781;50.928;4.440;2023-07-20T08:20:33;33.70;90.70
21246;DHT22;10781;50.928;4.440;2023-07-20T08:23:01;32.50;91.50
21246;DHT22;10781;50.928;4.440;2023-07-20T08:25:27;31.40;92.80
21246;DHT22;10781;50.928;4.440;2023-07-20T08:27:52;30.10;94.50
21246;DHT22;10781;50.928;4.440;2023-07-20T08:30:21;29.30;96.50
21246;DHT22;10781;50.928;4.440;2023-07-20T08:32:48;28.30;98.20
21246;DHT22;10781;50.928;4.440;2023-07-20T08:35:14;27.40;99.70
21246;DHT22;10781;50.928;4.440;2023-07-20T08:37:41;26.60;99.90
21246;DHT22;10781;50.928;4.440;2023-07-20T08:40:07;26.10;99.90
21246;DHT22;10781;50.928;4.440;2023-07-20T08:42:34;25.70;99.90
21246;DHT22;10781;50.928;4.440;2023-07-20T08:45:00;25.50;99.90
21246;DHT22;10781;50.928;4.440;2023-07-20T08:47:26;25.60;99.90
21246;DHT22;10781;50.928;4.440;2023-07-20T08:49:53;28.10;99.90
21246;DHT22;10781;50.928;4.440;2023-07-20T08:52:20;30.60;99.90
21246;DHT22;10781;50.928;4.440;2023-07-20T08:54:45;32.90;98.30
21246;DHT22;10781;50.928;4.440;2023-07-20T08:57:13;34.40;92.00
21246;DHT22;10781;50.928;4.440;2023-07-20T08:59:40;35.10;86.70
21246;DHT22;10781;50.928;4.440;2023-07-20T09:02:07;36.80;79.80
21246;DHT22;10781;50.928;4.440;2023-07-20T09:04:34;37.50;73.90
21246;DHT22;10781;50.928;4.440;2023-07-20T09:07:00;35.70;68.70
21246;DHT22;10781;50.928;4.440;2023-07-20T09:09:25;36.20;70.60
21246;DHT22;10781;50.928;4.440;2023-07-20T09:11:51;36.10;71.40
21246;DHT22;10781;50.928;4.440;2023-07-20T09:14:17;36.50;66.50
21246;DHT22;10781;50.928;4.440;2023-07-20T09:16:51;36.10;65.30
21246;DHT22;10781;50.928;4.440;2023-07-20T09:19:17;35.50;67.80
21246;DHT22;10781;50.928;4.440;2023-07-20T09:21:50;34.40;68.00
21246;DHT22;10781;50.928;4.440;2023-07-20T09:24:18;32.70;70.30
21246;DHT22;10781;50.928;4.440;2023-07-20T09:26:46;32.70;70.30
21246;DHT22;10781;50.928;4.440;2023-07-20T09:29:14;32.00;71.30
21246;DHT22;10781;50.928;4.440;2023-07-20T09:32:04;30.90;73.90
21246;DHT22;10781;50.928;4.440;2023-07-20T09:34:31;29.90;76.50
21246;DHT22;10781;50.928;4.440;2023-07-20T09:37:00;31.60;74.60
21246;DHT22;10781;50.928;4.440;2023-07-20T09:39:26;33.20;74.20
21246;DHT22;10781;50.928;4.440;2023-07-20T09:41:52;34.70;72.10
21246;DHT22;10781;50.928;4.440;2023-07-20T09:44:18;35.00;67.20
21246;DHT22;10781;50.928;4.440;2023-07-20T09:46:48;34.20;67.80
21246;DHT22;10781;50.928;4.440;2023-07-20T09:49:14;35.30;69.40
21246;DHT22;10781;50.928;4.440;2023-07-20T09:51:41;36.00;67.60
21246;DHT22;10781;50.928;4.440;2023-07-20T09:54:07;35.20;64.00
21246;DHT22;10781;50.928;4.440;2023-07-20T09:56:35;33.80;66.50
21246;DHT22;10781;50.928;4.440;2023-07-20T09:59:00;32.10;69.20
21246;DHT22;10781;50.928;4.440;2023-07-20T10:01:26;32.10;73.40
21246;DHT22;10781;50.928;4.440;2023-07-20T10:03:54;33.70;69.10
21246;DHT22;10781;50.928;4.440;2023-07-20T10:06:24;35.40;67.80
21246;DHT22;10781;50.928;4.440;2023-07-20T10:08:53;36.10;66.00
21246;DHT22;10781;50.928;4.440;2023-07-20T10:11:22;36.00;64.10
21246;DHT22;10781;50.928;4.440;2023-07-20T10:13:51;35.80;67.10
21246;DHT22;10781;50.928;4.440;2023-07-20T10:16:29;35.70;63.60
21246;DHT22;10781;50.928;4.440;2023-07-20T10:19:07;36.10;64.30
21246;DHT22;10781;50.928;4.440;2023-07-20T10:25:03;38.90;58.30
21246;DHT22;10781;50.928;4.440;2023-07-20T10:27:50;37.80;57.30
21246;DHT22;10781;50.928;4.440;2023-07-20T10:30:42;37.60;59.40
21246;DHT22;10781;50.928;4.440;2023-07-20T10:33:12;38.40;54.80
21246;DHT22;10781;50.928;4.440;2023-07-20T10:36:04;38.70;53.40
21246;DHT22;10781;50.928;4.440;2023-07-20T10:42:23;38.30;52.90
21246;DHT22;10781;50.928;4.440;2023-07-20T10:45:02;38.20;52.50
21246;DHT22;10781;50.928;4.440;2023-07-20T10:47:37;38.70;53.10
21246;DHT22;10781;50.928;4.440;2023-07-20T10:50:15;37.70;51.50
21246;DHT22;10781;50.928;4.440;2023-07-20T10:52:41;36.20;55.30
21246;DHT22;10781;50.928;4.440;2023-07-20T10:55:16;35.50;55.20
21246;DHT22;10781;50.928;4.440;2023-07-20T10:57:42;34.90;55.40
21246;DHT22;10781;50.928;4.440;2023-07-20T11:00:11;34.40;57.60
21246;DHT22;10781;50.928;4.440;2023-07-20T11:02:45;35.80;57.20
21246;DHT22;10781;50.928;4.440;2023-07-20T11:05:36;37.20;56.50
21246;DHT22;10781;50.928;4.440;2023-07-20T11:08:10;38.70;52.20
21246;DHT22;10781;50.928;4.440;2023-07-20T11:10:36;37.70;52.90
21246;DHT22;10781;50.928;4.440;2023-07-20T11:18:25;36.40;53.00
21246;DHT22;10781;50.928;4.440;2023-07-20T11:20:52;35.10;54.50
21246;DHT22;10781;50.928;4.440;2023-07-20T11:23:19;36.40;54.50
21246;DHT22;10781;50.928;4.440;2023-07-20T11:25:45;37.90;53.30
21246;DHT22;10781;50.928;4.440;2023-07-20T11:28:11;38.10;51.60
21246;DHT22;10781;50.928;4.440;2023-07-20T11:30:40;37.30;52.80
21246;DHT22;10781;50.928;4.440;2023-07-20T11:33:08;35.70;53.10
21246;DHT22;10781;50.928;4.440;2023-07-20T11:35:42;34.40;55.80
21246;DHT22;10781;50.928;4.440;2023-07-20T11:38:09;33.50;57.60
21246;DHT22;10781;50.928;4.440;2023-07-20T11:40:35;32.60;58.30
21246;DHT22;10781;50.928;4.440;2023-07-20T11:43:01;31.80;60.30
21246;DHT22;10781;50.928;4.440;2023-07-20T11:45:27;31.00;62.30
21246;DHT22;10781;50.928;4.440;2023-07-20T11:47:58;30.30;63.70
21246;DHT22;10781;50.928;4.440;2023-07-20T11:50:24;29.90;64.50
21246;DHT22;10781;50.928;4.440;2023-07-20T11:52:50;29.60;65.10
21246;DHT22;10781;50.928;4.440;2023-07-20T11:55:16;29.10;64.40
21246;DHT22;10781;50.928;4.440;2023-07-20T11:57:41;28.90;67.70
21246;DHT22;10781;50.928;4.440;2023-07-20T12:00:25;28.70;66.60
21246;DHT22;10781;50.928;4.440;2023-07-20T12:02:53;28.70;67.10
21246;DHT22;10781;50.928;4.440;2023-07-20T12:05:19;28.70;68.40
21246;DHT22;10781;50.928;4.440;2023-07-20T12:07:47;29.20;66.80
21246;DHT22;10781;50.928;4.440;2023-07-20T12:10:15;29.60;68.30
21246;DHT22;10781;50.928;4.440;2023-07-20T12:12:42;31.30;67.10
21246;DHT22;10781;50.928;4.440;2023-07-20T12:17:45;34.80;61.40
21246;DHT22;10781;50.928;4.440;2023-07-20T12:20:11;35.70;57.90
21246;DHT22;10781;50.928;4.440;2023-07-20T12:22:42;36.40;56.60
21246;DHT22;10781;50.928;4.440;2023-07-20T12:25:08;36.30;56.60
21246;DHT22;10781;50.928;4.440;2023-07-20T12:27:37;37.00;55.30
21246;DHT22;10781;50.928;4.440;2023-07-20T12:30:05;37.20;54.70
21246;DHT22;10781;50.928;4.440;2023-07-20T12:32:31;38.30;53.30
21246;DHT22;10781;50.928;4.440;2023-07-20T12:34:56;37.20;53.80
21246;DHT22;10781;50.928;4.440;2023-07-20T12:37:22;36.50;56.00
21246;DHT22;10781;50.928;4.440;2023-07-20T12:39:48;36.20;56.00
21246;DHT22;10781;50.928;4.440;2023-07-20T12:42:14;35.80;55.40
21246;DHT22;10781;50.928;4.440;2023-07-20T12:44:42;35.30;55.20
21246;DHT22;10781;50.928;4.440;2023-07-20T12:47:08;34.70;56.20
21246;DHT22;10781;50.928;4.440;2023-07-20T12:49:34;34.00;58.10
21246;DHT22;10781;50.928;4.440;2023-07-20T12:51:59;33.50;58.80
21246;DHT22;10781;50.928;4.440;2023-07-20T12:54:25;33.10;59.10
21246;DHT22;10781;50.928;4.440;2023-07-20T12:56:51;32.40;60.30
21246;DHT22;10781;50.928;4.440;2023-07-20T12:59:16;31.60;62.90
21246;DHT22;10781;50.928;4.440;2023-07-20T13:01:42;31.10;62.50
21246;DHT22;10781;50.928;4.440;2023-07-20T13:04:09;30.60;63.50
21246;DHT22;10781;50.928;4.440;2023-07-20T13:06:35;30.30;65.30
21246;DHT22;10781;50.928;4.440;2023-07-20T13:09:02;30.00;65.60
21246;DHT22;10781;50.928;4.440;2023-07-20T13:11:28;29.80;66.50
21246;DHT22;10781;50.928;4.440;2023-07-20T13:13:54;29.50;67.00
21246;DHT22;10781;50.928;4.440;2023-07-20T13:16:19;29.20;66.60
21246;DHT22;10781;50.928;4.440;2023-07-20T13:18:45;28.90;67.10
21246;DHT22;10781;50.928;4.440;2023-07-20T13:21:10;28.70;67.50
21246;DHT22;10781;50.928;4.440;2023-07-20T13:23:37;28.50;68.90
21246;DHT22;10781;50.928;4.440;2023-07-20T13:26:04;28.60;70.10
21246;DHT22;10781;50.928;4.440;2023-07-20T13:28:30;28.70;69.20
21246;DHT22;10781;50.928;4.440;2023-07-20T13:30:55;28.70;71.60
21246;DHT22;10781;50.928;4.440;2023-07-20T13:33:21;28.40;70.70
21246;DHT22;10781;50.928;4.440;2023-07-20T13:35:47;28.00;70.70
21246;DHT22;10781;50.928;4.440;2023-07-20T13:38:13;27.50;72.10
21246;DHT22;10781;50.928;4.440;2023-07-20T13:40:38;27.40;73.70
21246;DHT22;10781;50.928;4.440;2023-07-20T13:43:04;27.10;74.60
21246;DHT22;10781;50.928;4.440;2023-07-20T13:45:30;26.70;75.80
21246;DHT22;10781;50.928;4.440;2023-07-20T13:47:55;26.40;76.40
21246;DHT22;10781;50.928;4.440;2023-07-20T13:50:21;26.30;77.30
21246;DHT22;10781;50.928;4.440;2023-07-20T13:52:47;26.10;78.30
21246;DHT22;10781;50.928;4.440;2023-07-20T13:55:12;25.80;79.00
21246;DHT22;10781;50.928;4.440;2023-07-20T13:57:38;25.70;80.10
21246;DHT22;10781;50.928;4.440;2023-07-20T14:00:04;25.60;80.10
21246;DHT22;10781;50.928;4.440;2023-07-20T14:02:33;25.60;81.70
21246;DHT22;10781;50.928;4.440;2023-07-20T14:04:59;25.50;82.40
21246;DHT22;10781;50.928;4.440;2023-07-20T14:07:25;25.40;83.10
21246;DHT22;10781;50.928;4.440;2023-07-20T14:09:50;25.20;84.10
21246;DHT22;10781;50.928;4.440;2023-07-20T14:12:16;25.10;85.80
21246;DHT22;10781;50.928;4.440;2023-07-20T14:14:42;25.00;87.80
21246;DHT22;10781;50.928;4.440;2023-07-20T14:17:07;25.00;89.10
21246;DHT22;10781;50.928;4.440;2023-07-20T14:19:33;25.00;88.70
21246;DHT22;10781;50.928;4.440;2023-07-20T14:21:59;25.20;88.80
21246;DHT22;10781;50.928;4.440;2023-07-20T14:24:25;25.30;90.80
21246;DHT22;10781;50.928;4.440;2023-07-20T14:26:51;25.50;90.40
21246;DHT22;10781;50.928;4.440;2023-07-20T14:29:17;25.60;91.10
21246;DHT22;10781;50.928;4.440;2023-07-20T14:31:45;26.00;90.80
21246;DHT22;10781;50.928;4.440;2023-07-20T14:34:18;26.80;90.40
21246;DHT22;10781;50.928;4.440;2023-07-20T14:36:44;28.20;85.90
21246;DHT22;10781;50.928;4.440;2023-07-20T14:39:10;30.30;84.40
21246;DHT22;10781;50.928;4.440;2023-07-20T14:41:36;30.90;76.30
21246;DHT22;10781;50.928;4.440;2023-07-20T14:44:02;31.50;74.10
21246;DHT22;10781;50.928;4.440;2023-07-20T14:46:28;30.90;73.10
21246;DHT22;10781;50.928;4.440;2023-07-20T14:48:53;30.50;74.30
21246;DHT22;10781;50.928;4.440;2023-07-20T14:51:19;28.80;76.20
21246;DHT22;10781;50.928;4.440;2023-07-20T14:53:45;28.00;76.40
21246;DHT22;10781;50.928;4.440;2023-07-20T14:56:10;28.00;76.50
21246;DHT22;10781;50.928;4.440;2023-07-20T14:58:36;28.20;77.70
21246;DHT22;10781;50.928;4.440;2023-07-20T15:01:03;28.50;77.40
21246;DHT22;10781;50.928;4.440;2023-07-20T15:03:29;28.60;77.10
21246;DHT22;10781;50.928;4.440;2023-07-20T15:05:56;28.40;77.30
21246;DHT22;10781;50.928;4.440;2023-07-20T15:08:21;28.40;78.60
21246;DHT22;10781;50.928;4.440;2023-07-20T15:10:48;28.60;77.00
21246;DHT22;10781;50.928;4.440;2023-07-20T15:13:14;28.10;77.90
21246;DHT22;10781;50.928;4.440;2023-07-20T15:15:40;27.40;80.20
21246;DHT22;10781;50.928;4.440;2023-07-20T15:18:07;27.30;80.70
21246;DHT22;10781;50.928;4.440;2023-07-20T15:20:32;27.50;81.60
21246;DHT22;10781;50.928;4.440;2023-07-20T15:22:58;27.20;81.60
21246;DHT22;10781;50.928;4.440;2023-07-20T15:25:24;26.90;83.70
21246;DHT22;10781;50.928;4.440;2023-07-20T15:27:50;26.60;84.60
21246;DHT22;10781;50.928;4.440;2023-07-20T15:30:16;26.60;85.80
21246;DHT22;10781;50.928;4.440;2023-07-20T15:32:42;26.70;84.70
21246;DHT22;10781;50.928;4.440;2023-07-20T15:35:09;26.40;84.50
21246;DHT22;10781;50.928;4.440;2023-07-20T15:37:35;26.20;86.30
21246;DHT22;10781;50.928;4.440;2023-07-20T15:40:02;25.60;87.00
21246;DHT22;10781;50.928;4.440;2023-07-20T15:42:31;25.20;89.50
21246;DHT22;10781;50.928;4.440;2023-07-20T15:44:57;24.90;90.40
21246;DHT22;10781;50.928;4.440;2023-07-20T15:47:23;25.10;90.70
21246;DHT22;10781;50.928;4.440;2023-07-20T15:49:48;25.20;91.00
21246;DHT22;10781;50.928;4.440;2023-07-20T15:52:15;25.00;91.50